createdAt,value
2022-09-23T00:01:46.424Z,99.90
2022-09-23T00:04:13.026Z,99.90
2022-09-23T00:06:39.689Z,99.90
2022-09-23T00:09:06.271Z,99.90
2022-09-23T00:11:32.831Z,99.90
2022-09-23T00:14:00.007Z,99.90
2022-09-23T00:16:28.550Z,99.90
2022-09-23T00:18:55.212Z,99.90
2022-09-23T00:21:22.649Z,99.90
2022-09-23T00:23:49.216Z,99.90
2022-09-23T00:26:17.107Z,99.90
2022-09-23T00:28:43.711Z,99.90
2022-09-23T00:31:12.332Z,99.90
2022-09-23T00:33:40.446Z,99.90
2022-09-23T00:36:08.152Z,99.90
2022-09-23T00:38:34.778Z,99.90
2022-09-23T00:41:01.504Z,99.90
2022-09-23T00:43:43.226Z,99.90
2022-09-23T00:46:11.510Z,99.90
2022-09-23T00:48:39.608Z,99.90
2022-09-23T00:51:07.629Z,99.90
2022-09-23T00:53:34.622Z,99.90
2022-09-23T00:56:03.007Z,99.90
2022-09-23T00:58:32.559Z,99.90
2022-09-23T01:01:00.430Z,99.90
2022-09-23T01:03:27.921Z,99.90
2022-09-23T01:05:55.295Z,99.90
2022-09-23T01:08:22.870Z,99.90
2022-09-23T01:10:55.351Z,99.90
2022-09-23T01:13:25.402Z,99.90
2022-09-23T01:15:58.396Z,99.90
2022-09-23T01:18:31.219Z,99.90
2022-09-23T01:21:04.016Z,99.90
2022-09-23T01:23:33.596Z,99.90
2022-09-23T01:26:20.232Z,99.90
2022-09-23T01:28:47.000Z,99.90
2022-09-23T01:31:43.111Z,99.90
2022-09-23T01:34:09.874Z,99.90
2022-09-23T01:36:51.514Z,99.90
2022-09-23T01:39:24.598Z,99.90
2022-09-23T01:41:51.608Z,99.90
2022-09-23T01:44:18.139Z,99.90
2022-09-23T01:46:47.927Z,99.90
2022-09-23T01:49:17.547Z,99.90
2022-09-23T01:51:47.779Z,99.90
2022-09-23T01:54:26.813Z,99.90
2022-09-23T01:57:12.170Z,99.90
2022-09-23T01:59:40.852Z,99.90
2022-09-23T02:02:07.431Z,99.90
2022-09-23T02:04:41.309Z,99.90
2022-09-23T02:07:16.717Z,99.90
2022-09-23T02:09:45.536Z,99.90
2022-09-23T02:12:15.257Z,99.90
2022-09-23T02:14:44.610Z,99.90
2022-09-23T02:17:15.285Z,99.90
2022-09-23T02:19:47.778Z,99.90
2022-09-23T02:22:23.975Z,99.90
2022-09-23T02:24:50.573Z,99.90
2022-09-23T02:27:23.037Z,99.90
2022-09-23T02:29:55.029Z,99.90
2022-09-23T02:32:36.277Z,99.90
2022-09-23T02:35:08.489Z,99.90
2022-09-23T02:37:58.670Z,99.90
2022-09-23T02:40:31.683Z,99.90
2022-09-23T02:43:10.153Z,99.90
2022-09-23T02:45:38.962Z,99.90
2022-09-23T02:48:07.671Z,99.90
2022-09-23T02:50:34.576Z,99.90
2022-09-23T02:53:01.215Z,99.90
2022-09-23T02:55:31.260Z,99.90
2022-09-23T02:58:00.839Z,99.90
2022-09-23T03:00:50.961Z,99.90
2022-09-23T03:03:27.091Z,99.90
2022-09-23T03:05:56.257Z,99.90
2022-09-23T03:08:29.985Z,99.90
2022-09-23T03:11:05.789Z,99.90
2022-09-23T03:13:42.611Z,99.90
2022-09-23T03:16:21.143Z,99.90
2022-09-23T03:18:59.055Z,99.90
2022-09-23T03:21:29.122Z,99.90
2022-09-23T03:23:59.508Z,99.90
2022-09-23T03:26:31.520Z,99.90
2022-09-23T03:28:58.797Z,99.90
2022-09-23T03:31:25.455Z,99.90
2022-09-23T03:33:54.702Z,99.90
2022-09-23T03:36:43.975Z,99.90
2022-09-23T03:39:12.795Z,99.90
2022-09-23T03:41:45.061Z,99.90
2022-09-23T03:44:11.691Z,99.90
2022-09-23T03:46:38.405Z,99.90
2022-09-23T03:49:15.514Z,99.90
2022-09-23T03:51:44.674Z,99.90
2022-09-23T03:54:11.666Z,99.90
2022-09-23T03:56:38.324Z,99.90
2022-09-23T03:59:04.907Z,99.90
2022-09-23T04:01:31.492Z,99.90
2022-09-23T04:03:58.029Z,99.90
2022-09-23T04:06:24.611Z,99.90
2022-09-23T04:08:51.226Z,99.90
2022-09-23T04:11:17.815Z,99.90
2022-09-23T04:13:44.418Z,99.90
2022-09-23T04:16:11.042Z,99.90
2022-09-23T04:18:37.788Z,99.90
2022-09-23T04:21:04.758Z,99.90
2022-09-23T04:23:31.432Z,99.90
2022-09-23T04:25:57.959Z,99.90
2022-09-23T04:28:24.742Z,99.90
2022-09-23T04:30:51.376Z,99.90
2022-09-23T04:33:17.953Z,99.90
2022-09-23T04:35:44.867Z,99.90
2022-09-23T04:38:12.475Z,99.90
2022-09-23T04:40:39.169Z,99.90
2022-09-23T04:43:05.858Z,99.90
2022-09-23T04:45:32.511Z,99.90
2022-09-23T04:47:59.270Z,99.90
2022-09-23T04:50:26.292Z,99.90
2022-09-23T04:52:53.203Z,99.90
2022-09-23T04:55:20.088Z,99.90
2022-09-23T04:57:46.826Z,99.90
2022-09-23T05:00:15.094Z,99.90
2022-09-23T05:02:48.858Z,99.90
2022-09-23T05:05:18.559Z,99.90
2022-09-23T05:07:45.105Z,99.90
2022-09-23T05:10:11.817Z,99.90
2022-09-23T05:12:38.333Z,99.90
2022-09-23T05:15:05.139Z,99.90
2022-09-23T05:17:32.071Z,99.90
2022-09-23T05:19:59.288Z,99.90
2022-09-23T05:22:28.610Z,99.90
2022-09-23T05:24:55.301Z,99.90
2022-09-23T05:27:21.934Z,99.90
2022-09-23T05:29:49.374Z,99.90
2022-09-23T05:32:15.949Z,99.90
2022-09-23T05:34:42.992Z,99.90
2022-09-23T05:37:09.926Z,99.90
2022-09-23T05:39:36.839Z,99.90
2022-09-23T05:42:03.683Z,99.90
2022-09-23T05:44:30.281Z,99.90
2022-09-23T05:46:57.131Z,99.90
2022-09-23T05:49:37.701Z,99.90
2022-09-23T05:52:10.440Z,99.90
2022-09-23T05:54:37.845Z,99.90
2022-09-23T05:57:06.006Z,99.90
2022-09-23T05:59:33.195Z,99.90
2022-09-23T06:02:01.215Z,99.90
2022-09-23T06:04:27.819Z,99.90
2022-09-23T06:06:54.436Z,99.90
2022-09-23T06:09:21.024Z,99.90
2022-09-23T06:11:47.710Z,99.90
2022-09-23T06:14:14.925Z,99.90
2022-09-23T06:16:41.682Z,99.90
2022-09-23T06:19:09.781Z,99.90
2022-09-23T06:21:37.890Z,99.90
2022-09-23T06:24:05.634Z,99.90
2022-09-23T06:26:34.629Z,99.90
2022-09-23T06:29:02.894Z,99.90
2022-09-23T06:31:30.050Z,99.90
2022-09-23T06:34:07.410Z,99.90
2022-09-23T06:36:44.083Z,99.90
2022-09-23T06:39:12.156Z,99.90
2022-09-23T06:41:39.322Z,99.90
2022-09-23T06:44:06.133Z,99.90
2022-09-23T06:46:32.819Z,99.90
2022-09-23T06:48:59.523Z,99.90
2022-09-23T06:51:26.151Z,99.90
2022-09-23T06:53:52.962Z,99.90
2022-09-23T06:56:22.207Z,99.90
2022-09-23T06:58:48.833Z,99.90
2022-09-23T07:01:16.699Z,99.90
2022-09-23T07:03:44.309Z,99.90
2022-09-23T07:06:11.128Z,99.90
2022-09-23T07:08:38.003Z,99.90
2022-09-23T07:11:06.287Z,99.90
2022-09-23T07:13:33.549Z,99.90
2022-09-23T07:16:02.033Z,99.90
2022-09-23T07:18:37.334Z,99.90
2022-09-23T07:21:07.402Z,99.90
2022-09-23T07:23:33.971Z,99.90
2022-09-23T07:26:00.946Z,99.90
2022-09-23T07:28:29.049Z,99.90
2022-09-23T07:31:00.371Z,99.90
2022-09-23T07:33:33.101Z,99.90
2022-09-23T07:36:04.421Z,99.90
2022-09-23T07:38:31.398Z,99.90
2022-09-23T07:41:05.407Z,99.90
2022-09-23T07:43:32.755Z,99.90
2022-09-23T07:46:00.267Z,99.90
2022-09-23T07:48:30.691Z,99.90
2022-09-23T07:51:00.854Z,99.90
2022-09-23T07:53:28.499Z,99.90
2022-09-23T07:55:55.831Z,99.90
2022-09-23T07:58:22.968Z,99.90
2022-09-23T08:00:51.211Z,99.90
2022-09-23T08:03:18.053Z,99.90
2022-09-23T08:05:46.415Z,99.90
2022-09-23T08:08:14.203Z,99.90
2022-09-23T08:10:40.797Z,99.90
2022-09-23T08:13:07.447Z,99.90
2022-09-23T08:15:34.368Z,99.90
2022-09-23T08:18:01.524Z,99.90
2022-09-23T08:20:47.766Z,99.90
2022-09-23T08:23:15.596Z,99.90
2022-09-23T08:25:45.546Z,99.90
2022-09-23T08:28:16.528Z,99.90
2022-09-23T08:30:44.156Z,99.90
2022-09-23T08:33:13.787Z,99.90
2022-09-23T08:35:40.807Z,99.90
2022-09-23T08:38:07.911Z,99.90
2022-09-23T08:40:36.477Z,99.90
2022-09-23T08:43:06.949Z,99.90
2022-09-23T08:45:34.483Z,99.90
2022-09-23T08:48:12.225Z,99.90
2022-09-23T08:50:45.292Z,99.90
2022-09-23T08:53:15.189Z,99.90
2022-09-23T08:55:48.978Z,99.90
2022-09-23T08:58:30.842Z,99.90
2022-09-23T09:01:16.327Z,99.80
2022-09-23T09:03:46.302Z,99.90
2022-09-23T09:06:15.592Z,99.90
2022-09-23T09:08:44.234Z,99.90
2022-09-23T09:11:12.171Z,99.90
2022-09-23T09:13:44.827Z,99.70
2022-09-23T09:16:14.513Z,99.70
2022-09-23T09:18:46.975Z,99.70
2022-09-23T09:21:13.732Z,99.60
2022-09-23T09:23:40.375Z,99.80
2022-09-23T09:26:11.145Z,99.70
2022-09-23T09:28:42.715Z,99.50
2022-09-23T09:31:29.728Z,99.20
2022-09-23T09:34:07.381Z,99.10
2022-09-23T09:36:35.942Z,98.50
2022-09-23T09:39:03.344Z,98.10
2022-09-23T09:41:32.848Z,98.30
2022-09-23T09:44:00.798Z,98.40
2022-09-23T09:46:45.964Z,98.10
2022-09-23T09:49:25.035Z,98.00
2022-09-23T09:52:12.124Z,98.20
2022-09-23T09:54:39.594Z,98.70
2022-09-23T09:57:12.216Z,97.70
2022-09-23T09:59:42.077Z,98.30
2022-09-23T10:02:13.269Z,98.70
2022-09-23T10:04:41.107Z,98.00
2022-09-23T10:07:09.872Z,97.70
2022-09-23T10:09:37.518Z,97.80
2022-09-23T10:12:04.173Z,97.70
2022-09-23T10:14:31.709Z,98.10
2022-09-23T10:17:02.302Z,98.20
2022-09-23T10:19:29.312Z,96.60
2022-09-23T10:22:00.271Z,96.50
2022-09-23T10:24:30.954Z,95.80
2022-09-23T10:27:02.228Z,95.20
2022-09-23T10:29:30.523Z,95.30
2022-09-23T10:32:20.574Z,95.30
2022-09-23T10:34:50.452Z,94.70
2022-09-23T10:37:21.987Z,94.50
2022-09-23T10:40:07.467Z,94.80
2022-09-23T10:43:05.829Z,93.90
2022-09-23T10:45:52.940Z,92.50
2022-09-23T10:48:19.577Z,92.60
2022-09-23T10:50:53.008Z,92.30
2022-09-23T10:53:26.248Z,93.10
2022-09-23T10:55:58.663Z,92.10
2022-09-23T10:58:44.191Z,90.50
2022-09-23T11:01:17.079Z,91.00
2022-09-23T11:04:01.883Z,91.30
2022-09-23T11:06:28.553Z,90.50
2022-09-23T11:08:56.794Z,90.50
2022-09-23T11:11:35.254Z,90.00
2022-09-23T11:14:16.842Z,90.40
2022-09-23T11:16:47.957Z,91.40
2022-09-23T11:19:22.082Z,84.50
2022-09-23T11:22:04.027Z,83.60
2022-09-23T11:24:33.973Z,80.80
2022-09-23T11:27:11.408Z,78.60
2022-09-23T11:29:58.690Z,77.40
2022-09-23T11:32:38.270Z,76.20
2022-09-23T11:35:12.789Z,72.30
2022-09-23T11:37:44.940Z,73.90
2022-09-23T11:40:18.958Z,67.20
2022-09-23T11:42:50.652Z,67.80
2022-09-23T11:45:40.703Z,65.70
2022-09-23T11:48:16.903Z,69.50
2022-09-23T11:51:02.473Z,70.70
2022-09-23T11:53:38.053Z,66.20
2022-09-23T11:56:15.044Z,62.80
2022-09-23T11:59:03.111Z,64.30
2022-09-23T12:01:38.051Z,63.50
2022-09-23T12:04:31.624Z,62.10
2022-09-23T12:07:06.354Z,62.70
2022-09-23T12:09:57.333Z,59.10
2022-09-23T12:12:29.819Z,56.20
2022-09-23T12:15:06.333Z,59.70
2022-09-23T12:17:51.634Z,58.20
2022-09-23T12:20:21.477Z,56.10
2022-09-23T12:22:55.528Z,56.10
2022-09-23T12:25:47.635Z,54.60
2022-09-23T12:28:37.764Z,54.60
2022-09-23T12:31:08.378Z,53.70
2022-09-23T12:33:37.735Z,51.70
2022-09-23T12:36:07.727Z,51.20
2022-09-23T12:38:40.422Z,49.20
2022-09-23T12:41:25.859Z,49.00
2022-09-23T12:43:55.387Z,49.70
2022-09-23T12:46:27.477Z,52.50
2022-09-23T12:48:57.867Z,55.10
2022-09-23T12:51:25.363Z,56.10
2022-09-23T12:53:54.434Z,56.60
2022-09-23T12:56:26.527Z,57.70
2022-09-23T12:58:53.312Z,56.50
2022-09-23T13:01:22.110Z,56.70
2022-09-23T13:04:12.383Z,56.80
2022-09-23T13:06:40.505Z,55.50
2022-09-23T13:09:10.170Z,58.20
2022-09-23T13:11:40.548Z,60.40
2022-09-23T13:14:07.657Z,55.00
2022-09-23T13:16:35.779Z,57.00
2022-09-23T13:19:05.010Z,53.80
2022-09-23T13:21:44.474Z,52.90
2022-09-23T13:24:23.784Z,50.20
2022-09-23T13:26:53.213Z,53.00
2022-09-23T13:29:27.847Z,47.90
2022-09-23T13:31:58.142Z,45.90
2022-09-23T13:34:26.292Z,47.20
2022-09-23T13:36:53.785Z,47.20
2022-09-23T13:39:24.926Z,47.70
2022-09-23T13:41:52.860Z,45.00
2022-09-23T13:44:20.141Z,45.50
2022-09-23T13:46:48.363Z,41.50
2022-09-23T13:49:29.937Z,42.30
2022-09-23T13:51:57.031Z,44.40
2022-09-23T13:54:28.863Z,47.20
2022-09-23T13:56:58.697Z,49.10
2022-09-23T13:59:26.727Z,51.80
2022-09-23T14:02:04.111Z,52.10
2022-09-23T14:04:30.866Z,52.00
2022-09-23T14:06:57.573Z,51.70
2022-09-23T14:09:27.352Z,51.70
2022-09-23T14:11:55.076Z,52.20
2022-09-23T14:14:23.173Z,53.10
2022-09-23T14:16:50.691Z,54.40
2022-09-23T14:19:18.127Z,56.30
2022-09-23T14:21:47.521Z,56.60
2022-09-23T14:24:24.945Z,55.10
2022-09-23T14:26:56.393Z,55.20
2022-09-23T14:29:33.698Z,54.80
2022-09-23T14:32:04.839Z,55.80
2022-09-23T14:34:45.071Z,55.80
2022-09-23T14:37:45.754Z,56.00
2022-09-23T14:40:14.289Z,55.90
2022-09-23T14:42:42.713Z,56.70
2022-09-23T14:45:13.624Z,57.10
2022-09-23T14:47:43.064Z,57.30
2022-09-23T14:50:34.050Z,57.70
2022-09-23T14:53:00.759Z,59.80
2022-09-23T14:55:28.620Z,59.60
2022-09-23T14:58:02.667Z,61.10
2022-09-23T15:00:29.295Z,60.80
2022-09-23T15:03:00.658Z,59.20
2022-09-23T15:05:32.395Z,59.50
2022-09-23T15:08:01.049Z,60.20
2022-09-23T15:10:32.253Z,60.40
2022-09-23T15:13:05.510Z,59.80
2022-09-23T15:15:32.766Z,59.70
2022-09-23T15:18:15.638Z,59.70
2022-09-23T15:20:48.298Z,60.00
2022-09-23T15:23:34.261Z,60.00
2022-09-23T15:26:24.199Z,61.80
2022-09-23T15:28:55.913Z,61.60
2022-09-23T15:31:26.383Z,61.50
2022-09-23T15:33:53.093Z,60.90
2022-09-23T15:36:20.732Z,60.50
